createdAt,value
2018-02-08T00:01:09.959Z,-3.26
2018-02-08T00:03:37.469Z,-3.26
2018-02-08T00:06:05.145Z,-3.20
2018-02-08T00:08:32.677Z,-3.26
2018-02-08T00:11:00.201Z,-3.27
2018-02-08T00:13:27.781Z,-3.24
2018-02-08T00:15:55.312Z,-3.27
2018-02-08T00:18:22.846Z,-3.22
2018-02-08T00:20:50.398Z,-3.28
2018-02-08T00:23:17.938Z,-3.31
2018-02-08T00:25:45.516Z,-3.33
2018-02-08T00:28:13.037Z,-3.31
2018-02-08T00:30:40.562Z,-3.34
2018-02-08T00:33:08.119Z,-3.36
2018-02-08T00:35:35.632Z,-3.40
2018-02-08T00:38:03.158Z,-3.43
2018-02-08T00:40:30.719Z,-3.44
2018-02-08T00:42:58.430Z,-3.42
2018-02-08T00:45:25.967Z,-3.43
2018-02-08T00:47:53.495Z,-3.46
2018-02-08T00:50:21.047Z,-3.47
2018-02-08T00:52:48.569Z,-3.47
2018-02-08T00:55:16.148Z,-3.49
2018-02-08T00:57:43.681Z,-3.47
2018-02-08T01:00:11.257Z,-3.51
2018-02-08T01:02:38.800Z,-3.55
2018-02-08T01:05:06.321Z,-3.58
2018-02-08T01:07:33.847Z,-3.59
2018-02-08T01:10:01.392Z,-3.58
2018-02-08T01:12:28.916Z,-3.55
2018-02-08T01:14:56.484Z,-3.56
2018-02-08T01:17:24.006Z,-3.57
2018-02-08T01:19:51.551Z,-3.53
2018-02-08T01:22:19.120Z,-3.58
2018-02-08T01:24:46.653Z,-3.60
2018-02-08T01:27:14.198Z,-3.60
2018-02-08T01:29:41.867Z,-3.59
2018-02-08T01:32:09.388Z,-3.61
2018-02-08T01:34:36.920Z,-3.66
2018-02-08T01:37:04.441Z,-3.70
2018-02-08T01:39:31.991Z,-3.69
2018-02-08T01:41:59.773Z,-3.70
2018-02-08T01:44:27.323Z,-3.73
2018-02-08T01:46:54.893Z,-3.70
2018-02-08T01:49:34.296Z,-3.71
2018-02-08T01:52:01.847Z,-3.76
2018-02-08T01:54:29.392Z,-3.81
2018-02-08T01:56:56.942Z,-3.80
2018-02-08T01:59:24.524Z,-3.81
2018-02-08T02:01:52.087Z,-3.83
2018-02-08T02:04:19.620Z,-3.87
2018-02-08T02:06:47.153Z,-3.90
2018-02-08T02:09:14.695Z,-3.97
2018-02-08T02:11:42.280Z,-3.98
2018-02-08T02:14:09.863Z,-3.87
2018-02-08T02:16:37.506Z,-3.90
2018-02-08T02:19:05.057Z,-3.84
2018-02-08T02:21:32.712Z,-3.90
2018-02-08T02:24:00.229Z,-3.88
2018-02-08T02:26:27.821Z,-3.90
2018-02-08T02:28:55.366Z,-3.92
2018-02-08T02:31:22.893Z,-3.91
2018-02-08T02:33:50.465Z,-3.92
2018-02-08T02:36:18.013Z,-3.90
2018-02-08T02:38:45.715Z,-3.91
2018-02-08T02:41:13.283Z,-3.93
2018-02-08T02:43:40.813Z,-3.93
2018-02-08T02:46:08.495Z,-3.92
2018-02-08T02:48:36.022Z,-3.98
2018-02-08T02:51:03.585Z,-3.98
2018-02-08T02:53:31.156Z,-4.00
2018-02-08T02:55:58.738Z,-4.02
2018-02-08T02:58:26.298Z,-3.99
2018-02-08T03:00:53.828Z,-4.03
2018-02-08T03:03:21.434Z,-4.04
2018-02-08T03:05:48.977Z,-4.02
2018-02-08T03:08:16.542Z,-4.07
2018-02-08T03:10:44.091Z,-4.08
2018-02-08T03:13:11.683Z,-4.03
2018-02-08T03:15:39.260Z,-4.09
2018-02-08T03:18:06.871Z,-4.14
2018-02-08T03:20:34.423Z,-4.21
2018-02-08T03:23:02.001Z,-4.24
2018-02-08T03:25:29.549Z,-4.27
2018-02-08T03:27:57.077Z,-4.31
2018-02-08T03:30:36.348Z,-4.33
2018-02-08T03:33:03.892Z,-4.36
2018-02-08T03:35:31.465Z,-4.34
2018-02-08T03:37:59.021Z,-4.35
2018-02-08T03:40:26.547Z,-4.43
2018-02-08T03:42:54.100Z,-4.45
2018-02-08T03:45:21.621Z,-4.50
2018-02-08T03:47:49.142Z,-4.50
2018-02-08T03:50:16.720Z,-4.49
2018-02-08T03:52:44.309Z,-4.46
2018-02-08T03:55:11.865Z,-4.49
2018-02-08T03:57:39.445Z,-4.47
2018-02-08T04:00:06.989Z,-4.47
2018-02-08T04:02:34.535Z,-4.46
2018-02-08T04:05:02.098Z,-4.45
2018-02-08T04:07:29.613Z,-4.47
2018-02-08T04:09:57.208Z,-4.51
2018-02-08T04:12:24.749Z,-4.55
2018-02-08T04:14:52.296Z,-4.52
2018-02-08T04:17:19.877Z,-4.48
2018-02-08T04:19:47.403Z,-4.52
2018-02-08T04:22:14.947Z,-4.56
2018-02-08T04:24:42.504Z,-4.58
2018-02-08T04:27:10.056Z,-4.58
2018-02-08T04:29:37.691Z,-4.58
2018-02-08T04:32:05.226Z,-4.56
2018-02-08T04:34:32.761Z,-4.57
2018-02-08T04:37:00.288Z,-4.56
2018-02-08T04:39:39.609Z,-4.55
2018-02-08T04:42:19.100Z,-4.52
2018-02-08T04:44:58.481Z,-4.50
2018-02-08T04:47:43.569Z,-4.42
2018-02-08T04:50:11.110Z,-4.42
2018-02-08T04:52:38.650Z,-4.40
2018-02-08T04:55:06.252Z,-4.40
2018-02-08T04:57:33.803Z,-4.37
2018-02-08T05:00:01.347Z,-4.37
2018-02-08T05:02:28.892Z,-4.38
2018-02-08T05:04:56.438Z,-4.38
2018-02-08T05:07:23.990Z,-4.37
2018-02-08T05:09:51.514Z,-4.39
2018-02-08T05:12:19.036Z,-4.35
2018-02-08T05:14:46.580Z,-4.29
2018-02-08T05:17:14.115Z,-4.27
2018-02-08T05:19:41.649Z,-4.31
2018-02-08T05:22:09.214Z,-4.34
2018-02-08T05:24:36.724Z,-4.37
2018-02-08T05:27:04.293Z,-4.37
2018-02-08T05:29:32.024Z,-4.37
2018-02-08T05:31:59.572Z,-4.38
2018-02-08T05:34:27.116Z,-4.38
2018-02-08T05:36:54.742Z,-4.35
2018-02-08T05:39:22.305Z,-4.34
2018-02-08T05:41:49.843Z,-4.32
2018-02-08T05:44:17.392Z,-4.33
2018-02-08T05:46:44.933Z,-4.36
2018-02-08T05:49:12.456Z,-4.36
2018-02-08T05:51:39.974Z,-4.37
2018-02-08T05:54:07.533Z,-4.37
2018-02-08T05:56:35.081Z,-4.38
2018-02-08T05:59:02.609Z,-4.39
2018-02-08T06:01:30.142Z,-4.32
2018-02-08T06:03:57.763Z,-4.35
2018-02-08T06:06:25.340Z,-4.33
2018-02-08T06:08:52.852Z,-4.37
2018-02-08T06:11:20.391Z,-4.37
2018-02-08T06:13:47.940Z,-4.40
2018-02-08T06:16:15.492Z,-4.40
2018-02-08T06:18:43.021Z,-4.41
2018-02-08T06:21:10.585Z,-4.43
2018-02-08T06:23:38.136Z,-4.43
2018-02-08T06:26:05.695Z,-4.44
2018-02-08T06:28:33.250Z,-4.44
2018-02-08T06:31:00.792Z,-4.47
2018-02-08T06:33:28.320Z,-4.47
2018-02-08T06:35:55.856Z,-4.41
2018-02-08T06:38:23.419Z,-4.41
2018-02-08T06:40:50.956Z,-4.42
2018-02-08T06:43:18.497Z,-4.40
2018-02-08T06:45:46.172Z,-4.35
2018-02-08T06:48:13.712Z,-4.31
2018-02-08T06:50:41.261Z,-4.27
2018-02-08T06:53:08.813Z,-4.25
2018-02-08T06:55:36.363Z,-4.23
2018-02-08T06:58:03.916Z,-4.25
2018-02-08T07:00:31.540Z,-4.22
2018-02-08T07:02:59.304Z,-4.17
2018-02-08T07:05:26.839Z,-4.15
2018-02-08T07:07:54.372Z,-4.13
2018-02-08T07:10:21.926Z,-4.13
2018-02-08T07:12:49.444Z,-4.15
2018-02-08T07:15:17.249Z,-4.15
2018-02-08T07:17:44.868Z,-4.16
2018-02-08T07:20:12.387Z,-4.13
2018-02-08T07:22:39.908Z,-4.10
2018-02-08T07:25:07.497Z,-4.06
2018-02-08T07:27:35.172Z,-4.05
2018-02-08T07:30:02.714Z,-4.01
2018-02-08T07:32:30.316Z,-3.96
2018-02-08T07:34:57.956Z,-3.94
2018-02-08T07:37:26.167Z,-3.90
2018-02-08T07:39:53.710Z,-3.87
2018-02-08T07:42:21.276Z,-3.85
2018-02-08T07:44:48.825Z,-3.82
2018-02-08T07:47:16.384Z,-3.75
2018-02-08T07:49:44.046Z,-3.69
2018-02-08T07:52:11.570Z,-3.63
2018-02-08T07:54:39.137Z,-3.54
2018-02-08T07:57:06.704Z,-3.47
2018-02-08T07:59:34.228Z,-3.42
2018-02-08T08:02:01.796Z,-3.37
2018-02-08T08:04:29.339Z,-3.31
2018-02-08T08:06:56.963Z,-3.25
2018-02-08T08:09:24.492Z,-3.16
2018-02-08T08:11:52.062Z,-3.07
2018-02-08T08:14:19.586Z,-3.00
2018-02-08T08:16:47.125Z,-2.93
2018-02-08T08:19:14.696Z,-2.86
2018-02-08T08:21:42.504Z,-2.79
2018-02-08T08:24:10.082Z,-2.69
2018-02-08T08:26:37.664Z,-2.61
2018-02-08T08:29:05.180Z,-2.56
2018-02-08T08:31:32.750Z,-2.54
2018-02-08T08:34:00.348Z,-2.51
2018-02-08T08:36:27.893Z,-2.39
2018-02-08T08:38:55.466Z,-2.32
2018-02-08T08:41:22.982Z,-2.32
2018-02-08T08:43:50.517Z,-2.25
2018-02-08T08:46:18.073Z,-2.20
2018-02-08T08:48:45.581Z,-2.12
2018-02-08T08:51:13.100Z,-2.05
2018-02-08T08:53:40.642Z,-1.98
2018-02-08T08:56:08.184Z,-1.95
2018-02-08T08:58:35.932Z,-1.86
2018-02-08T09:01:03.475Z,-1.85
2018-02-08T09:03:31.052Z,-1.82
2018-02-08T09:05:58.573Z,-1.80
2018-02-08T09:08:26.172Z,-1.75
2018-02-08T09:10:53.864Z,-1.61
2018-02-08T09:13:21.493Z,-1.50
2018-02-08T09:15:49.036Z,-1.48
2018-02-08T09:18:16.612Z,-1.46
2018-02-08T09:20:44.141Z,-1.40
2018-02-08T09:23:11.752Z,-1.20
2018-02-08T09:25:39.290Z,-1.24
2018-02-08T09:28:06.821Z,-1.00
2018-02-08T09:30:35.198Z,-0.82
2018-02-08T09:33:02.753Z,-0.81
2018-02-08T09:35:30.346Z,-0.86
2018-02-08T09:37:58.011Z,-0.77
2018-02-08T09:40:25.549Z,-0.76
2018-02-08T09:42:53.084Z,-0.79
2018-02-08T09:45:20.876Z,-0.81
2018-02-08T09:47:48.441Z,-0.88
2018-02-08T09:50:15.958Z,-0.88
2018-02-08T09:52:43.488Z,-0.86
2018-02-08T09:55:11.045Z,-0.82
2018-02-08T09:57:38.580Z,-0.78
2018-02-08T10:00:06.089Z,-0.77
2018-02-08T10:02:33.632Z,-0.74
2018-02-08T10:05:01.169Z,-0.81
2018-02-08T10:07:28.705Z,-0.83
2018-02-08T10:09:56.242Z,-0.74
2018-02-08T10:12:23.828Z,-0.62
2018-02-08T10:14:51.482Z,-0.41
2018-02-08T10:17:19.012Z,-0.10
2018-02-08T10:19:46.529Z,0.01
2018-02-08T10:22:14.051Z,-0.10
2018-02-08T10:24:41.557Z,-0.13
2018-02-08T10:27:09.177Z,-0.22
2018-02-08T10:29:36.686Z,-0.27
2018-02-08T10:32:04.282Z,-0.25
2018-02-08T10:34:31.811Z,-0.29
2018-02-08T10:36:59.333Z,-0.21
2018-02-08T10:39:26.893Z,-0.07
2018-02-08T10:41:54.412Z,0.11
2018-02-08T10:44:21.943Z,0.04
2018-02-08T10:46:49.495Z,-0.07
2018-02-08T10:49:17.011Z,-0.08
2018-02-08T10:51:44.564Z,0.01
2018-02-08T10:54:12.133Z,0.08
2018-02-08T10:56:39.660Z,0.15
2018-02-08T10:59:07.252Z,0.21
2018-02-08T11:01:34.782Z,0.24
2018-02-08T11:04:02.317Z,0.31
2018-02-08T11:06:29.840Z,0.33
2018-02-08T11:08:57.386Z,0.43
2018-02-08T11:11:24.922Z,0.52
2018-02-08T11:13:52.433Z,0.70
2018-02-08T11:16:20.024Z,0.81
2018-02-08T11:18:47.526Z,0.82
2018-02-08T11:21:15.062Z,0.85
2018-02-08T11:23:42.590Z,0.90
2018-02-08T11:26:10.147Z,0.82
2018-02-08T11:28:37.678Z,0.76
2018-02-08T11:31:05.193Z,0.71
2018-02-08T11:33:32.866Z,0.70
2018-02-08T11:36:00.397Z,0.82
2018-02-08T11:38:28.003Z,0.97
2018-02-08T11:40:55.781Z,1.03
2018-02-08T11:43:23.285Z,1.11
2018-02-08T11:45:50.790Z,1.21
2018-02-08T11:48:18.338Z,1.24
2018-02-08T11:50:45.924Z,1.29
2018-02-08T11:53:13.465Z,1.36
2018-02-08T11:55:41.038Z,1.22
2018-02-08T11:58:08.809Z,1.09
2018-02-08T12:00:36.318Z,1.15
2018-02-08T12:03:03.825Z,0.90
2018-02-08T12:05:31.376Z,0.69
2018-02-08T12:07:58.892Z,0.83
2018-02-08T12:10:26.486Z,1.05
2018-02-08T12:12:54.045Z,1.18
2018-02-08T12:15:21.611Z,1.09
2018-02-08T12:17:49.145Z,1.31
2018-02-08T12:20:16.730Z,1.31
2018-02-08T12:22:44.260Z,1.43
2018-02-08T12:25:11.770Z,1.44
2018-02-08T12:27:39.329Z,1.45
2018-02-08T12:30:06.861Z,1.43
2018-02-08T12:32:34.374Z,1.22
2018-02-08T12:35:02.097Z,1.31
2018-02-08T12:37:29.606Z,1.42
2018-02-08T12:39:57.132Z,1.40
2018-02-08T12:42:24.681Z,1.28
2018-02-08T12:44:52.208Z,1.23
2018-02-08T12:47:19.717Z,1.41
2018-02-08T12:49:47.280Z,1.58
2018-02-08T12:52:14.803Z,1.60
2018-02-08T12:54:42.333Z,1.64
2018-02-08T12:57:09.856Z,1.58
2018-02-08T12:59:37.357Z,1.58
2018-02-08T13:02:04.920Z,1.45
2018-02-08T13:04:32.512Z,1.48
2018-02-08T13:07:00.044Z,1.50
2018-02-08T13:09:27.593Z,1.40
2018-02-08T13:11:55.129Z,1.27
2018-02-08T13:14:22.664Z,1.20
2018-02-08T13:16:50.173Z,1.22
2018-02-08T13:19:17.766Z,1.33
2018-02-08T13:21:45.301Z,1.41
2018-02-08T13:24:12.839Z,1.45
2018-02-08T13:26:40.550Z,1.40
2018-02-08T13:29:08.072Z,1.31
2018-02-08T13:31:36.366Z,1.37
2018-02-08T13:34:03.887Z,1.55
2018-02-08T13:36:42.229Z,1.69
2018-02-08T13:39:15.173Z,1.76
2018-02-08T13:41:42.736Z,1.68
2018-02-08T13:44:10.263Z,1.52
2018-02-08T13:46:37.768Z,1.48
2018-02-08T13:49:06.191Z,1.54
2018-02-08T13:51:36.565Z,1.57
2018-02-08T13:54:09.719Z,1.53
2018-02-08T13:56:42.847Z,1.45
2018-02-08T13:59:12.284Z,1.43
2018-02-08T14:01:41.572Z,1.45
2018-02-08T14:04:09.081Z,1.42
2018-02-08T14:06:36.641Z,1.38
2018-02-08T14:09:04.186Z,1.33
2018-02-08T14:11:31.736Z,1.30
2018-02-08T14:13:59.258Z,1.23
2018-02-08T14:16:26.788Z,1.19
2018-02-08T14:18:54.473Z,1.20
2018-02-08T14:21:21.992Z,1.22
2018-02-08T14:23:49.520Z,1.26
2018-02-08T14:26:17.249Z,1.23
2018-02-08T14:28:44.781Z,1.06
2018-02-08T14:31:12.358Z,0.93
2018-02-08T14:33:39.900Z,0.93
2018-02-08T14:36:07.417Z,0.95
2018-02-08T14:38:35.054Z,0.94
2018-02-08T14:41:02.801Z,0.92
2018-02-08T14:43:31.274Z,0.86
2018-02-08T14:45:58.782Z,0.80
2018-02-08T14:48:26.328Z,0.84
2018-02-08T14:50:53.932Z,0.91
2018-02-08T14:53:21.444Z,0.92
2018-02-08T14:55:48.993Z,0.92
2018-02-08T14:58:16.622Z,0.95
2018-02-08T15:00:44.133Z,0.95
2018-02-08T15:03:11.664Z,0.88
2018-02-08T15:05:39.220Z,0.85
2018-02-08T15:08:06.762Z,0.76
2018-02-08T15:10:34.345Z,0.68
2018-02-08T15:13:01.862Z,0.63
2018-02-08T15:15:29.443Z,0.60
2018-02-08T15:17:56.922Z,0.59
2018-02-08T15:20:24.446Z,0.59
2018-02-08T15:22:51.970Z,0.58
2018-02-08T15:25:19.500Z,0.56
2018-02-08T15:27:47.023Z,0.50
2018-02-08T15:30:14.627Z,0.48
2018-02-08T15:32:42.294Z,0.44
2018-02-08T15:35:09.824Z,0.40
2018-02-08T15:37:37.356Z,0.35
2018-02-08T15:40:04.931Z,0.35
2018-02-08T15:42:32.465Z,0.28
2018-02-08T15:45:00.018Z,0.23
2018-02-08T15:47:27.664Z,0.18
2018-02-08T15:49:55.165Z,0.12
2018-02-08T15:52:22.678Z,0.08
2018-02-08T15:54:50.313Z,0.06
2018-02-08T15:57:17.830Z,0.05
2018-02-08T15:59:45.445Z,0.06
2018-02-08T16:02:13.016Z,0.01
2018-02-08T16:04:40.528Z,-0.09
2018-02-08T16:07:08.122Z,-0.14
2018-02-08T16:09:35.669Z,-0.14
2018-02-08T16:12:03.183Z,-0.12
2018-02-08T16:14:30.708Z,-0.16
2018-02-08T16:16:58.460Z,-0.17
2018-02-08T16:19:25.968Z,-0.22
2018-02-08T16:21:53.497Z,-0.26
2018-02-08T16:24:21.044Z,-0.24
2018-02-08T16:26:48.597Z,-0.27
2018-02-08T16:29:16.172Z,-0.28
2018-02-08T16:31:43.754Z,-0.32
2018-02-08T16:34:11.372Z,-0.38
2018-02-08T16:36:39.039Z,-0.41
2018-02-08T16:39:06.615Z,-0.45
2018-02-08T16:41:34.176Z,-0.47
2018-02-08T16:44:01.722Z,-0.49
2018-02-08T16:46:29.238Z,-0.49
2018-02-08T16:48:56.786Z,-0.48
2018-02-08T16:51:24.329Z,-0.51
2018-02-08T16:53:51.867Z,-0.54
2018-02-08T16:56:19.402Z,-0.57
2018-02-08T16:58:46.931Z,-0.60
2018-02-08T17:01:14.473Z,-0.61
2018-02-08T17:03:42.030Z,-0.62
2018-02-08T17:06:09.537Z,-0.62
2018-02-08T17:08:37.053Z,-0.61
2018-02-08T17:11:04.680Z,-0.59
2018-02-08T17:13:32.245Z,-0.63
2018-02-08T17:15:59.778Z,-0.66
2018-02-08T17:18:27.441Z,-0.67
2018-02-08T17:20:54.957Z,-0.68
2018-02-08T17:23:22.465Z,-0.71
2018-02-08T17:25:50.006Z,-0.71
2018-02-08T17:28:17.540Z,-0.69
2018-02-08T17:30:45.098Z,-0.65
2018-02-08T17:33:12.629Z,-0.67
2018-02-08T17:35:40.231Z,-0.63
2018-02-08T17:38:07.791Z,-0.61
2018-02-08T17:40:35.327Z,-0.61
2018-02-08T17:43:02.843Z,-0.63
2018-02-08T17:45:31.803Z,-0.69
2018-02-08T17:47:59.332Z,-0.79
2018-02-08T17:50:28.221Z,-0.87
2018-02-08T17:52:55.832Z,-0.91
2018-02-08T17:55:23.373Z,-0.91
2018-02-08T17:57:50.941Z,-0.94
2018-02-08T18:00:18.662Z,-0.93
2018-02-08T18:02:46.203Z,-0.94
2018-02-08T18:05:13.740Z,-0.96
2018-02-08T18:07:41.341Z,-0.97
2018-02-08T18:10:08.899Z,-0.95
2018-02-08T18:12:36.425Z,-0.93
2018-02-08T18:15:03.942Z,-0.93
2018-02-08T18:17:31.521Z,-0.98
2018-02-08T18:19:59.043Z,-0.97
2018-02-08T18:22:26.556Z,-1.04
2018-02-08T18:24:54.124Z,-1.09
2018-02-08T18:27:21.644Z,-1.11
2018-02-08T18:29:49.239Z,-1.15
2018-02-08T18:32:16.798Z,-1.19
2018-02-08T18:34:44.309Z,-1.17
2018-02-08T18:37:11.858Z,-1.18
2018-02-08T18:39:39.369Z,-1.20
2018-02-08T18:42:06.905Z,-1.21
2018-02-08T18:44:34.633Z,-1.20
2018-02-08T18:47:02.174Z,-1.23
2018-02-08T18:49:29.685Z,-1.26
2018-02-08T18:51:57.334Z,-1.28
2018-02-08T18:54:24.847Z,-1.29
2018-02-08T18:56:52.360Z,-1.33
2018-02-08T18:59:19.906Z,-1.29
2018-02-08T19:01:47.556Z,-1.29
2018-02-08T19:04:15.139Z,-1.32
2018-02-08T19:06:42.677Z,-1.36
2018-02-08T19:09:10.238Z,-1.38
2018-02-08T19:11:37.779Z,-1.38
2018-02-08T19:14:05.372Z,-1.37
2018-02-08T19:16:32.882Z,-1.37
2018-02-08T19:19:00.392Z,-1.37
2018-02-08T19:21:27.936Z,-1.36
2018-02-08T19:23:55.449Z,-1.35
2018-02-08T19:26:22.983Z,-1.38
2018-02-08T19:28:50.575Z,-1.41
2018-02-08T19:31:18.163Z,-1.42
2018-02-08T19:33:45.714Z,-1.42
2018-02-08T19:36:13.273Z,-1.45
2018-02-08T19:38:40.813Z,-1.47
2018-02-08T19:41:08.329Z,-1.49
2018-02-08T19:43:35.967Z,-1.51
2018-02-08T19:46:03.491Z,-1.52
2018-02-08T19:48:31.022Z,-1.52
2018-02-08T19:50:58.569Z,-1.52
2018-02-08T19:53:26.085Z,-1.64
2018-02-08T19:55:53.626Z,-1.75
2018-02-08T19:58:21.174Z,-1.81
2018-02-08T20:00:48.794Z,-1.87
2018-02-08T20:03:16.342Z,-1.86
2018-02-08T20:05:43.887Z,-1.84
2018-02-08T20:08:11.456Z,-1.78
2018-02-08T20:10:39.249Z,-1.77
2018-02-08T20:13:06.777Z,-1.77
2018-02-08T20:15:34.736Z,-1.80
2018-02-08T20:18:02.280Z,-1.85
2018-02-08T20:20:30.021Z,-1.87
2018-02-08T20:22:57.534Z,-1.91
2018-02-08T20:25:31.028Z,-1.94
2018-02-08T20:27:58.584Z,-1.95
2018-02-08T20:30:26.123Z,-1.97
2018-02-08T20:32:53.676Z,-2.00
2018-02-08T20:35:21.235Z,-2.04
2018-02-08T20:37:48.761Z,-2.06
2018-02-08T20:40:22.321Z,-2.11
2018-02-08T20:42:55.519Z,-2.22
2018-02-08T20:45:23.073Z,-2.31
2018-02-08T20:47:50.663Z,-2.36
2018-02-08T20:50:18.409Z,-2.36
2018-02-08T20:52:45.972Z,-2.38
2018-02-08T20:55:13.505Z,-2.40
2018-02-08T20:57:41.047Z,-2.40
2018-02-08T21:00:08.584Z,-2.44
2018-02-08T21:02:36.120Z,-2.50
2018-02-08T21:05:03.795Z,-2.54
2018-02-08T21:07:31.332Z,-2.57
2018-02-08T21:09:58.881Z,-2.64
2018-02-08T21:12:26.464Z,-2.66
2018-02-08T21:14:54.006Z,-2.71
2018-02-08T21:17:21.669Z,-2.74
2018-02-08T21:19:49.237Z,-2.76
2018-02-08T21:22:16.773Z,-2.80
2018-02-08T21:24:44.453Z,-2.85
2018-02-08T21:27:12.034Z,-2.89
2018-02-08T21:29:39.564Z,-2.88
2018-02-08T21:32:07.198Z,-2.87
2018-02-08T21:34:34.713Z,-2.87
2018-02-08T21:37:02.281Z,-2.92
2018-02-08T21:39:29.946Z,-2.95
2018-02-08T21:41:57.658Z,-2.96
2018-02-08T21:44:25.183Z,-2.93
2018-02-08T21:46:52.725Z,-2.94
2018-02-08T21:49:20.273Z,-2.92
2018-02-08T21:51:47.811Z,-2.93
2018-02-08T21:54:15.473Z,-2.95
2018-02-08T21:56:43.000Z,-2.93
2018-02-08T21:59:10.546Z,-2.92
2018-02-08T22:01:38.108Z,-2.91
2018-02-08T22:04:05.657Z,-2.94
2018-02-08T22:06:33.190Z,-2.95
2018-02-08T22:09:00.753Z,-2.97
2018-02-08T22:11:28.304Z,-3.02
2018-02-08T22:13:55.829Z,-3.05
2018-02-08T22:16:23.506Z,-2.96
2018-02-08T22:18:51.079Z,-2.98
2018-02-08T22:21:18.641Z,-3.02
2018-02-08T22:23:46.162Z,-3.04
2018-02-08T22:26:13.709Z,-3.08
2018-02-08T22:28:41.249Z,-3.10
2018-02-08T22:31:08.850Z,-3.11
2018-02-08T22:33:36.392Z,-3.10
2018-02-08T22:36:03.953Z,-3.05
2018-02-08T22:38:31.477Z,-3.06
2018-02-08T22:40:59.032Z,-3.05
2018-02-08T22:43:26.593Z,-3.08
2018-02-08T22:45:54.128Z,-3.09
2018-02-08T22:48:21.675Z,-3.11
2018-02-08T22:50:49.236Z,-3.11
2018-02-08T22:53:16.790Z,-3.12
2018-02-08T22:55:44.382Z,-3.13
2018-02-08T22:58:11.937Z,-3.13
2018-02-08T23:00:39.473Z,-3.13
2018-02-08T23:03:07.076Z,-3.07
2018-02-08T23:05:34.614Z,-3.06
2018-02-08T23:08:02.145Z,-3.07
2018-02-08T23:10:29.815Z,-3.10
2018-02-08T23:12:57.352Z,-3.14
2018-02-08T23:15:24.934Z,-3.17
2018-02-08T23:17:52.613Z,-3.21
2018-02-08T23:20:20.129Z,-3.19
2018-02-08T23:22:47.713Z,-3.17
2018-02-08T23:25:15.264Z,-3.18
2018-02-08T23:27:42.793Z,-3.24
2018-02-08T23:30:10.337Z,-3.27
2018-02-08T23:32:37.894Z,-3.30
2018-02-08T23:35:05.442Z,-3.31
2018-02-08T23:37:33.014Z,-3.29
2018-02-08T23:40:00.665Z,-3.31
2018-02-08T23:42:28.206Z,-3.33
2018-02-08T23:44:55.725Z,-3.32
2018-02-08T23:47:23.313Z,-3.34
2018-02-08T23:49:50.880Z,-3.34
2018-02-08T23:52:18.401Z,-3.35
2018-02-08T23:54:45.989Z,-3.35
2018-02-08T23:57:13.544Z,-3.38
2018-02-08T23:59:41.218Z,-3.42
